ENGM Airport Information

Runway Information
Runway 01L Length 11811 ft width 148 ft
Elevation 656 ft Threshold 0 ft Heading 16
Runway 19R Length 11811 ft Width 148 ft
Elevation 675 ft Threshold 0 ft Heading 196
Runway 01R Length 9678 ft width 148 ft
Elevation 670 ft Threshold 0 ft Heading 16
Runway 19L Length 9678 ft Width 148 ft
Elevation 681 ft Threshold 0 ft Heading 196
Airport Frequencies
Type APP Name APP Frequency 119.975 MHZ
Type ATIS Name ATIS Frequency 126.125 MHZ
Type CLD Name CLNC DEL Frequency 121.6 MHZ
Type DIR Name DIRECTOR Frequency 131.35 MHZ
Type GND Name GND Frequency 121.925 MHZ
Type MISC Name DE ICING Frequency 131.975 MHZ
Type OPS Name WINGOPS Frequency 29.38 MHZ
Type PMSV Name PMSV METRO Frequency 134.175 MHZ
Type TWR Name TWR Frequency 118.3 MHZ
Airport Navaids
Type NDB Name Bergerud Frequency 316 KHZ
Type VOR-DME Name Gardermoen Frequency 115950 KHZ
Type NDB Name Oppaker Frequency 334 KHZ
Type NDB Name Solberg Frequency 414 KHZ
Type NDB Name Soknen Frequency 387 KHZ
Airport Weather Information & NOTAM
ADDS - METARS form results

(2128 UTC 17 December 2017)
 
METAR text: ENGM 172120Z 00000KT 5000 0900E R19R/P2000N R01R/P2000N PRFG BKN002 M14/M16 Q1011 TEMPO 0800 FZFG VV001
Conditions at: ENGM (OSLO/GARDERMOEN , NO) observed 2120 UTC 17 December 2017
Temperature: -14.0°C (7°F)
Dewpoint: -16.0°C (3°F) [RH = 85%]
Pressure (altimeter): 29.85 inches Hg (1011.0 mb)
Winds: calm
Visibility: 3 miles (5 km)
Ceiling: 200 feet AGL
Clouds: broken clouds at 200 feet AGL
Weather: PRFG  (partial fog)

METAR text: ENGM 172050Z 00000KT 5000 0900SE R19R/P2000N R01R/1000D -SN PRFG BKN002 M14/M16 Q1011 TEMPO 0800 FZFG VV001
Conditions at: ENGM (OSLO/GARDERMOEN , NO) observed 2050 UTC 17 December 2017
Temperature: -14.0°C (7°F)
Dewpoint: -16.0°C (3°F) [RH = 85%]
Pressure (altimeter): 29.85 inches Hg (1011.0 mb)
Winds: calm
Visibility: 3 miles (5 km)
Ceiling: 200 feet AGL
Clouds: broken clouds at 200 feet AGL
Weather: PRFG -SN  (partial fog, light snow)